createdAt,value
2018-12-10T00:04:49.485Z,7.06
2018-12-10T00:09:54.202Z,7.01
2018-12-10T00:14:56.979Z,7.00
2018-12-10T00:19:59.728Z,6.92
2018-12-10T00:25:02.628Z,6.90
2018-12-10T00:30:07.481Z,6.90
2018-12-10T00:35:11.811Z,6.88
2018-12-10T00:40:14.673Z,6.84
2018-12-10T00:45:17.529Z,6.81
2018-12-10T00:50:20.289Z,6.79
2018-12-10T00:55:23.250Z,6.80
2018-12-10T01:00:26.082Z,6.76
2018-12-10T01:05:28.916Z,6.75
2018-12-10T01:10:31.720Z,6.73
2018-12-10T01:15:34.548Z,6.67
2018-12-10T01:20:37.379Z,6.62
2018-12-10T01:25:40.333Z,6.57
2018-12-10T01:30:43.021Z,6.59
2018-12-10T01:35:45.704Z,6.58
2018-12-10T01:40:48.620Z,6.55
2018-12-10T01:45:51.379Z,6.48
2018-12-10T01:50:54.264Z,6.39
2018-12-10T01:55:57.124Z,6.35
2018-12-10T02:00:59.993Z,6.27
2018-12-10T02:06:02.720Z,6.26
2018-12-10T02:11:05.564Z,6.26
2018-12-10T02:16:09.533Z,6.29
2018-12-10T02:21:12.503Z,6.25
2018-12-10T02:26:15.016Z,6.24
2018-12-10T02:31:18.133Z,6.20
2018-12-10T02:36:20.979Z,6.16
2018-12-10T02:41:23.845Z,6.17
2018-12-10T02:46:26.576Z,6.16
2018-12-10T02:51:29.381Z,6.14
2018-12-10T02:56:32.119Z,6.15
2018-12-10T03:01:35.129Z,6.13
2018-12-10T03:06:38.087Z,6.10
2018-12-10T03:11:41.090Z,6.09
2018-12-10T03:16:44.172Z,6.07
2018-12-10T03:21:46.928Z,6.04
2018-12-10T03:26:49.685Z,6.03
2018-12-10T03:31:52.723Z,6.06
2018-12-10T03:36:55.444Z,6.08
2018-12-10T03:41:58.348Z,6.05
2018-12-10T03:47:01.220Z,6.05
2018-12-10T03:52:04.116Z,6.05
2018-12-10T03:57:06.874Z,6.06
2018-12-10T04:02:09.741Z,6.06
2018-12-10T04:07:12.463Z,6.06
2018-12-10T04:12:15.401Z,6.06
2018-12-10T04:17:18.266Z,6.04
2018-12-10T04:22:21.061Z,6.05
2018-12-10T04:27:23.992Z,6.05
2018-12-10T04:32:26.815Z,6.04
2018-12-10T04:37:29.524Z,6.02
2018-12-10T04:42:32.260Z,6.00
2018-12-10T04:47:35.237Z,6.00
2018-12-10T04:52:37.956Z,6.02
2018-12-10T04:57:40.628Z,6.03
2018-12-10T05:02:43.563Z,6.04
2018-12-10T05:07:46.515Z,6.02
2018-12-10T05:12:49.312Z,6.00
2018-12-10T05:17:51.977Z,6.01
2018-12-10T05:22:54.753Z,6.00
2018-12-10T05:27:57.540Z,5.99
2018-12-10T05:33:00.305Z,6.01
2018-12-10T05:38:03.053Z,5.99
2018-12-10T05:43:05.866Z,5.95
2018-12-10T05:48:08.718Z,5.97
2018-12-10T05:53:11.519Z,5.96
2018-12-10T05:58:14.231Z,5.95
2018-12-10T06:03:16.847Z,5.96
2018-12-10T06:08:19.688Z,5.95
2018-12-10T06:13:22.284Z,5.94
2018-12-10T06:18:24.887Z,5.90
2018-12-10T06:23:27.743Z,5.91
2018-12-10T06:28:30.709Z,5.84
2018-12-10T06:33:33.592Z,5.77
2018-12-10T06:38:36.346Z,5.71
2018-12-10T06:43:39.052Z,5.70
2018-12-10T06:48:41.775Z,5.67
2018-12-10T06:53:44.821Z,5.60
2018-12-10T06:58:47.745Z,5.56
2018-12-10T07:03:53.443Z,5.51
2018-12-10T07:08:56.143Z,5.48
2018-12-10T07:13:58.892Z,5.44
2018-12-10T07:19:01.689Z,5.37
2018-12-10T07:24:04.588Z,5.40
2018-12-10T07:29:07.272Z,5.43
2018-12-10T07:34:10.243Z,5.44
2018-12-10T07:39:12.933Z,5.43
2018-12-10T07:44:15.732Z,5.43
2018-12-10T07:49:18.770Z,5.48
2018-12-10T07:54:21.541Z,5.52
2018-12-10T07:59:24.403Z,5.54
2018-12-10T08:04:27.137Z,5.57
2018-12-10T08:09:29.884Z,5.58
2018-12-10T08:14:33.640Z,5.64
2018-12-10T08:19:53.383Z,5.57
2018-12-10T08:24:56.020Z,5.60
2018-12-10T08:29:58.773Z,5.58
2018-12-10T08:35:01.647Z,5.52
2018-12-10T08:40:04.906Z,5.54
2018-12-10T08:45:07.920Z,5.51
2018-12-10T08:50:10.921Z,5.54
2018-12-10T08:55:13.713Z,5.59
2018-12-10T09:00:16.556Z,5.61
2018-12-10T09:05:19.637Z,5.81
2018-12-10T09:10:22.641Z,6.03
2018-12-10T09:15:28.261Z,6.24
2018-12-10T09:20:31.273Z,6.19
2018-12-10T09:25:34.247Z,6.43
2018-12-10T09:30:37.155Z,6.75
2018-12-10T09:35:40.398Z,6.63
2018-12-10T09:40:43.059Z,6.76
2018-12-10T09:45:45.756Z,6.65
2018-12-10T09:50:48.532Z,6.75
2018-12-10T09:55:51.315Z,6.65
2018-12-10T10:00:54.143Z,6.65
2018-12-10T10:05:57.020Z,6.85
2018-12-10T10:10:59.769Z,6.88
2018-12-10T10:16:02.614Z,6.85
2018-12-10T10:21:11.302Z,6.72
2018-12-10T10:26:10.409Z,6.94
2018-12-10T10:31:13.145Z,6.88
2018-12-10T10:36:15.873Z,6.65
2018-12-10T10:41:18.780Z,6.60
2018-12-10T10:46:21.468Z,6.55
2018-12-10T10:51:24.327Z,6.60
2018-12-10T10:56:27.221Z,6.65
2018-12-10T11:01:35.664Z,6.58
2018-12-10T11:06:38.628Z,6.61
2018-12-10T11:11:41.631Z,6.61
2018-12-10T11:16:45.433Z,6.62
2018-12-10T11:21:48.243Z,6.51
2018-12-10T11:26:50.968Z,6.42
2018-12-10T11:31:53.855Z,6.38
2018-12-10T11:36:56.701Z,6.37
2018-12-10T11:41:59.552Z,6.37
2018-12-10T11:47:02.816Z,6.38
2018-12-10T11:52:05.695Z,6.38
2018-12-10T11:57:08.704Z,6.40
2018-12-10T12:02:11.799Z,6.42
2018-12-10T12:07:14.627Z,6.39
2018-12-10T12:12:17.711Z,6.32
2018-12-10T12:17:20.641Z,6.33
2018-12-10T12:22:23.492Z,6.33
2018-12-10T12:27:26.307Z,6.30
2018-12-10T12:32:29.020Z,6.29
2018-12-10T12:37:31.996Z,6.29
2018-12-10T12:42:34.881Z,6.22
2018-12-10T12:47:37.811Z,6.21
2018-12-10T12:52:40.660Z,6.25
2018-12-10T12:57:43.592Z,6.21
2018-12-10T13:02:46.395Z,6.01
2018-12-10T13:07:49.333Z,5.91
2018-12-10T13:12:52.125Z,5.89
2018-12-10T13:17:55.016Z,5.92
2018-12-10T13:22:57.872Z,6.17
2018-12-10T13:28:00.743Z,6.25
2018-12-10T13:33:03.719Z,6.34
2018-12-10T13:38:12.353Z,6.34
2018-12-10T13:43:11.776Z,6.24
2018-12-10T13:48:14.817Z,6.18
2018-12-10T13:53:17.641Z,6.15
2018-12-10T13:58:20.581Z,6.18
2018-12-10T14:03:23.569Z,6.15
2018-12-10T14:08:26.184Z,6.15
2018-12-10T14:13:29.010Z,6.14
2018-12-10T14:18:32.048Z,6.14
2018-12-10T14:23:34.872Z,6.18
2018-12-10T14:28:37.848Z,6.07
2018-12-10T14:33:40.789Z,6.01
2018-12-10T14:38:43.578Z,5.98
2018-12-10T14:43:46.381Z,5.97
2018-12-10T14:48:49.241Z,5.92
2018-12-10T14:53:52.330Z,5.89
2018-12-10T14:58:55.216Z,5.85
2018-12-10T15:03:58.156Z,5.84
2018-12-10T15:09:01.111Z,5.81
2018-12-10T15:14:04.242Z,5.80
2018-12-10T15:19:07.266Z,5.79
2018-12-10T15:24:09.903Z,5.75
2018-12-10T15:29:12.653Z,5.68
2018-12-10T15:34:15.413Z,5.66
2018-12-10T15:39:18.157Z,5.63
2018-12-10T15:44:20.995Z,5.63
2018-12-10T15:49:23.681Z,5.63
2018-12-10T15:54:26.633Z,5.60
2018-12-10T15:59:29.360Z,5.58
2018-12-10T16:04:33.908Z,5.59
2018-12-10T16:09:36.870Z,5.55
2018-12-10T16:14:39.529Z,5.53
2018-12-10T16:19:42.329Z,5.56
2018-12-10T16:24:45.417Z,5.55
2018-12-10T16:29:48.173Z,5.54
2018-12-10T16:34:50.952Z,5.53
2018-12-10T16:39:53.779Z,5.45
2018-12-10T16:44:56.568Z,5.34
2018-12-10T16:49:59.504Z,5.32
2018-12-10T16:55:02.244Z,5.33
2018-12-10T17:00:09.878Z,5.23
2018-12-10T17:05:12.933Z,5.12
2018-12-10T17:10:15.878Z,5.08
2018-12-10T17:15:18.800Z,5.07
2018-12-10T17:20:22.447Z,4.98
2018-12-10T17:25:25.317Z,4.88
2018-12-10T17:30:28.157Z,4.88
2018-12-10T17:35:30.863Z,4.91
2018-12-10T17:40:33.743Z,4.87
2018-12-10T17:45:37.312Z,4.83
2018-12-10T17:50:41.363Z,4.89
2018-12-10T17:55:44.225Z,4.91
2018-12-10T18:00:47.365Z,4.85
2018-12-10T18:05:50.208Z,4.82
2018-12-10T18:10:53.169Z,4.78
2018-12-10T18:15:56.248Z,4.79
2018-12-10T18:20:59.149Z,4.77
2018-12-10T18:26:02.057Z,4.78
2018-12-10T18:31:04.944Z,4.78
2018-12-10T18:36:07.830Z,4.79
2018-12-10T18:41:10.844Z,4.80
2018-12-10T18:46:13.853Z,4.78
2018-12-10T18:51:16.712Z,4.84
2018-12-10T18:56:20.677Z,4.81
2018-12-10T19:01:23.558Z,4.83
2018-12-10T19:06:26.529Z,4.85
2018-12-10T19:11:29.592Z,4.82
2018-12-10T19:16:32.380Z,4.84
2018-12-10T19:21:35.139Z,4.82
2018-12-10T19:26:38.064Z,4.79
2018-12-10T19:31:40.916Z,4.76
2018-12-10T19:36:43.747Z,4.79
2018-12-10T19:41:46.426Z,4.80
2018-12-10T19:46:49.226Z,4.81
2018-12-10T19:51:52.173Z,4.86
2018-12-10T19:56:55.052Z,4.87
2018-12-10T20:01:58.348Z,4.88
2018-12-10T20:07:06.340Z,4.85
2018-12-10T20:12:09.841Z,4.85
2018-12-10T20:17:13.712Z,4.85
2018-12-10T20:22:17.365Z,4.85
2018-12-10T20:27:20.236Z,4.86
2018-12-10T20:32:23.646Z,4.87
2018-12-10T20:37:26.860Z,4.91
2018-12-10T20:42:29.959Z,4.97
2018-12-10T20:47:33.389Z,5.00
2018-12-10T20:52:37.487Z,5.00
2018-12-10T20:57:41.593Z,5.06
2018-12-10T21:02:44.629Z,5.06
2018-12-10T21:07:47.850Z,5.07
2018-12-10T21:12:50.897Z,5.03
2018-12-10T21:17:53.552Z,5.04
2018-12-10T21:22:57.601Z,5.02
2018-12-10T21:28:01.228Z,5.01
2018-12-10T21:33:04.696Z,5.01
2018-12-10T21:38:07.599Z,5.03
2018-12-10T21:43:10.656Z,4.99
2018-12-10T21:48:14.464Z,4.97
2018-12-10T21:53:17.249Z,4.92
2018-12-10T21:58:20.318Z,4.89
2018-12-10T22:03:23.421Z,4.88
2018-12-10T22:08:26.671Z,4.86
2018-12-10T22:13:29.486Z,4.81
2018-12-10T22:18:32.278Z,4.82
2018-12-10T22:23:35.181Z,4.84
2018-12-10T22:28:37.936Z,4.85
2018-12-10T22:33:40.634Z,4.87
2018-12-10T22:38:43.533Z,4.91
2018-12-10T22:43:46.447Z,4.93
2018-12-10T22:48:49.396Z,4.95
2018-12-10T22:53:52.193Z,4.96
2018-12-10T22:58:54.789Z,4.96
2018-12-10T23:03:57.764Z,4.98
2018-12-10T23:09:00.636Z,4.96
2018-12-10T23:14:03.621Z,4.97
2018-12-10T23:19:06.516Z,4.98
2018-12-10T23:24:09.180Z,4.99
2018-12-10T23:29:12.197Z,4.99
2018-12-10T23:34:14.914Z,5.00
2018-12-10T23:39:17.640Z,5.01
2018-12-10T23:44:26.004Z,5.05
2018-12-10T23:49:28.860Z,5.05
2018-12-10T23:54:31.591Z,5.06
2018-12-10T23:59:48.566Z,5.07
